sensor_id;sensor_type;location;lat;lon;timestamp;temperature;humidity
75457;SHT31;64036;48.266;14.192;2023-10-08T00:00:13;16.77;53.81
75457;SHT31;64036;48.266;14.192;2023-10-08T00:03:03;16.77;53.75
75457;SHT31;64036;48.266;14.192;2023-10-08T00:05:34;16.79;53.59
75457;SHT31;64036;48.266;14.192;2023-10-08T00:08:01;16.78;53.59
75457;SHT31;64036;48.266;14.192;2023-10-08T00:10:33;16.78;53.54
75457;SHT31;64036;48.266;14.192;2023-10-08T00:13:06;16.80;53.40
75457;SHT31;64036;48.266;14.192;2023-10-08T00:15:35;16.79;53.24
75457;SHT31;64036;48.266;14.192;2023-10-08T00:18:05;16.79;53.14
75457;SHT31;64036;48.266;14.192;2023-10-08T00:20:40;16.79;52.98
75457;SHT31;64036;48.266;14.192;2023-10-08T00:23:13;16.79;52.98
75457;SHT31;64036;48.266;14.192;2023-10-08T00:25:42;16.79;52.59
75457;SHT31;64036;48.266;14.192;2023-10-08T00:28:12;16.80;52.27
75457;SHT31;64036;48.266;14.192;2023-10-08T00:30:41;16.82;51.92
75457;SHT31;64036;48.266;14.192;2023-10-08T00:33:08;16.84;51.63
75457;SHT31;64036;48.266;14.192;2023-10-08T00:35:40;16.87;51.37
75457;SHT31;64036;48.266;14.192;2023-10-08T00:38:10;16.90;51.32
75457;SHT31;64036;48.266;14.192;2023-10-08T00:40:46;16.93;51.15
75457;SHT31;64036;48.266;14.192;2023-10-08T00:43:31;16.95;51.02
75457;SHT31;64036;48.266;14.192;2023-10-08T00:46:03;16.97;51.09
75457;SHT31;64036;48.266;14.192;2023-10-08T00:48:47;16.99;50.94
75457;SHT31;64036;48.266;14.192;2023-10-08T00:51:17;17.02;50.88
75457;SHT31;64036;48.266;14.192;2023-10-08T00:53:56;17.04;50.87
75457;SHT31;64036;48.266;14.192;2023-10-08T00:56:35;17.04;50.77
75457;SHT31;64036;48.266;14.192;2023-10-08T00:59:18;17.06;50.87
75457;SHT31;64036;48.266;14.192;2023-10-08T01:01:47;17.05;51.11
75457;SHT31;64036;48.266;14.192;2023-10-08T01:04:24;17.05;51.15
75457;SHT31;64036;48.266;14.192;2023-10-08T01:06:55;17.05;51.14
75457;SHT31;64036;48.266;14.192;2023-10-08T01:09:29;17.05;51.22
75457;SHT31;64036;48.266;14.192;2023-10-08T01:12:13;17.06;51.23
75457;SHT31;64036;48.266;14.192;2023-10-08T01:15:01;17.06;51.41
75457;SHT31;64036;48.266;14.192;2023-10-08T01:17:41;17.05;51.52
75457;SHT31;64036;48.266;14.192;2023-10-08T01:20:16;17.04;51.53
75457;SHT31;64036;48.266;14.192;2023-10-08T01:22:58;17.04;51.63
75457;SHT31;64036;48.266;14.192;2023-10-08T01:25:25;17.02;51.81
75457;SHT31;64036;48.266;14.192;2023-10-08T01:27:57;17.04;51.88
75457;SHT31;64036;48.266;14.192;2023-10-08T01:30:27;17.04;51.89
75457;SHT31;64036;48.266;14.192;2023-10-08T01:35:34;17.02;52.33
75457;SHT31;64036;48.266;14.192;2023-10-08T01:38:00;17.00;52.43
75457;SHT31;64036;48.266;14.192;2023-10-08T01:40:26;16.95;52.53
75457;SHT31;64036;48.266;14.192;2023-10-08T01:42:54;16.93;52.41
75457;SHT31;64036;48.266;14.192;2023-10-08T01:45:20;16.92;52.28
75457;SHT31;64036;48.266;14.192;2023-10-08T01:47:49;16.90;52.21
75457;SHT31;64036;48.266;14.192;2023-10-08T01:50:17;16.90;52.18
75457;SHT31;64036;48.266;14.192;2023-10-08T01:52:54;16.90;52.18
75457;SHT31;64036;48.266;14.192;2023-10-08T01:55:20;16.90;52.23
75457;SHT31;64036;48.266;14.192;2023-10-08T01:57:48;16.90;52.44
75457;SHT31;64036;48.266;14.192;2023-10-08T02:00:18;16.91;52.31
75457;SHT31;64036;48.266;14.192;2023-10-08T02:02:49;16.92;52.36
75457;SHT31;64036;48.266;14.192;2023-10-08T02:05:16;16.93;52.30
75457;SHT31;64036;48.266;14.192;2023-10-08T02:07:44;16.94;52.31
75457;SHT31;64036;48.266;14.192;2023-10-08T02:10:11;16.95;52.50
75457;SHT31;64036;48.266;14.192;2023-10-08T02:12:40;16.97;52.60
75457;SHT31;64036;48.266;14.192;2023-10-08T02:15:07;16.96;52.65
75457;SHT31;64036;48.266;14.192;2023-10-08T02:17:34;16.97;52.65
75457;SHT31;64036;48.266;14.192;2023-10-08T02:20:00;16.99;52.64
75457;SHT31;64036;48.266;14.192;2023-10-08T02:22:30;16.99;52.59
75457;SHT31;64036;48.266;14.192;2023-10-08T02:24:58;17.00;52.75
75457;SHT31;64036;48.266;14.192;2023-10-08T02:27:27;17.00;52.88
75457;SHT31;64036;48.266;14.192;2023-10-08T02:29:53;16.98;52.96
75457;SHT31;64036;48.266;14.192;2023-10-08T02:32:19;16.98;53.10
75457;SHT31;64036;48.266;14.192;2023-10-08T02:34:48;16.96;53.26
75457;SHT31;64036;48.266;14.192;2023-10-08T02:37:15;16.95;53.39
75457;SHT31;64036;48.266;14.192;2023-10-08T02:39:41;16.92;53.48
75457;SHT31;64036;48.266;14.192;2023-10-08T02:42:08;16.91;53.48
75457;SHT31;64036;48.266;14.192;2023-10-08T02:44:36;16.89;53.70
75457;SHT31;64036;48.266;14.192;2023-10-08T02:47:08;16.88;53.89
75457;SHT31;64036;48.266;14.192;2023-10-08T02:49:38;16.86;54.03
75457;SHT31;64036;48.266;14.192;2023-10-08T02:52:07;16.87;54.03
75457;SHT31;64036;48.266;14.192;2023-10-08T02:54:36;16.85;54.13
75457;SHT31;64036;48.266;14.192;2023-10-08T02:57:02;16.84;54.09
75457;SHT31;64036;48.266;14.192;2023-10-08T02:59:32;16.82;54.19
75457;SHT31;64036;48.266;14.192;2023-10-08T03:02:06;16.79;54.22
75457;SHT31;64036;48.266;14.192;2023-10-08T03:04:42;16.77;54.32
75457;SHT31;64036;48.266;14.192;2023-10-08T03:07:10;16.75;54.44
75457;SHT31;64036;48.266;14.192;2023-10-08T03:09:57;16.73;54.51
75457;SHT31;64036;48.266;14.192;2023-10-08T03:12:42;16.72;54.71
75457;SHT31;64036;48.266;14.192;2023-10-08T03:15:12;16.68;55.00
75457;SHT31;64036;48.266;14.192;2023-10-08T03:17:53;16.64;55.30
75457;SHT31;64036;48.266;14.192;2023-10-08T03:20:22;16.61;55.52
75457;SHT31;64036;48.266;14.192;2023-10-08T03:23:02;16.58;55.74
75457;SHT31;64036;48.266;14.192;2023-10-08T03:25:52;16.57;55.85
75457;SHT31;64036;48.266;14.192;2023-10-08T03:28:27;16.54;56.05
75457;SHT31;64036;48.266;14.192;2023-10-08T03:30:55;16.51;56.30
75457;SHT31;64036;48.266;14.192;2023-10-08T03:33:35;16.50;56.45
75457;SHT31;64036;48.266;14.192;2023-10-08T03:36:03;16.50;56.54
75457;SHT31;64036;48.266;14.192;2023-10-08T03:38:34;16.49;56.64
75457;SHT31;64036;48.266;14.192;2023-10-08T03:41:22;16.49;57.05
75457;SHT31;64036;48.266;14.192;2023-10-08T03:43:58;16.47;57.12
75457;SHT31;64036;48.266;14.192;2023-10-08T03:46:29;16.44;57.61
75457;SHT31;64036;48.266;14.192;2023-10-08T03:48:57;16.39;58.09
75457;SHT31;64036;48.266;14.192;2023-10-08T03:51:29;16.29;58.84
75457;SHT31;64036;48.266;14.192;2023-10-08T03:54:00;16.20;59.27
75457;SHT31;64036;48.266;14.192;2023-10-08T03:56:44;16.19;58.68
75457;SHT31;64036;48.266;14.192;2023-10-08T03:59:14;16.23;58.36
75457;SHT31;64036;48.266;14.192;2023-10-08T04:02:00;16.26;58.26
75457;SHT31;64036;48.266;14.192;2023-10-08T04:04:47;16.31;58.00
75457;SHT31;64036;48.266;14.192;2023-10-08T04:07:17;16.35;57.97
75457;SHT31;64036;48.266;14.192;2023-10-08T04:09:59;16.39;57.88
75457;SHT31;64036;48.266;14.192;2023-10-08T04:12:34;16.40;57.77
75457;SHT31;64036;48.266;14.192;2023-10-08T04:15:13;16.42;57.78
75457;SHT31;64036;48.266;14.192;2023-10-08T04:17:41;16.40;58.21
75457;SHT31;64036;48.266;14.192;2023-10-08T04:20:16;16.37;58.63
75457;SHT31;64036;48.266;14.192;2023-10-08T04:23:01;16.31;59.24
75457;SHT31;64036;48.266;14.192;2023-10-08T04:25:38;16.23;59.63
75457;SHT31;64036;48.266;14.192;2023-10-08T04:28:04;16.18;59.81
75457;SHT31;64036;48.266;14.192;2023-10-08T04:30:34;16.16;59.96
75457;SHT31;64036;48.266;14.192;2023-10-08T04:33:02;16.13;59.99
75457;SHT31;64036;48.266;14.192;2023-10-08T04:35:33;16.10;60.13
75457;SHT31;64036;48.266;14.192;2023-10-08T04:38:04;16.06;60.21
75457;SHT31;64036;48.266;14.192;2023-10-08T04:40:34;16.03;60.43
75457;SHT31;64036;48.266;14.192;2023-10-08T04:43:12;15.96;60.75
75457;SHT31;64036;48.266;14.192;2023-10-08T04:45:40;15.89;60.89
75457;SHT31;64036;48.266;14.192;2023-10-08T04:48:06;15.84;60.57
75457;SHT31;64036;48.266;14.192;2023-10-08T04:50:35;15.81;60.36
75457;SHT31;64036;48.266;14.192;2023-10-08T04:53:02;15.80;60.24
75457;SHT31;64036;48.266;14.192;2023-10-08T04:55:36;15.78;60.38
75457;SHT31;64036;48.266;14.192;2023-10-08T04:58:07;15.73;60.58
75457;SHT31;64036;48.266;14.192;2023-10-08T05:00:46;15.70;60.73
75457;SHT31;64036;48.266;14.192;2023-10-08T05:03:35;15.64;60.96
75457;SHT31;64036;48.266;14.192;2023-10-08T05:06:08;15.61;60.74
75457;SHT31;64036;48.266;14.192;2023-10-08T05:08:41;15.58;60.81
75457;SHT31;64036;48.266;14.192;2023-10-08T05:11:23;15.54;60.96
75457;SHT31;64036;48.266;14.192;2023-10-08T05:14:07;15.50;61.10
75457;SHT31;64036;48.266;14.192;2023-10-08T05:16:41;15.46;61.21
75457;SHT31;64036;48.266;14.192;2023-10-08T05:19:26;15.43;60.98
75457;SHT31;64036;48.266;14.192;2023-10-08T05:22:11;15.44;60.76
75457;SHT31;64036;48.266;14.192;2023-10-08T05:25:03;15.47;60.64
75457;SHT31;64036;48.266;14.192;2023-10-08T05:27:36;15.49;60.60
75457;SHT31;64036;48.266;14.192;2023-10-08T05:30:12;15.52;60.59
75457;SHT31;64036;48.266;14.192;2023-10-08T05:32:54;15.55;60.66
75457;SHT31;64036;48.266;14.192;2023-10-08T05:35:40;15.58;60.60
75457;SHT31;64036;48.266;14.192;2023-10-08T05:40:53;15.71;60.56
75457;SHT31;64036;48.266;14.192;2023-10-08T05:43:26;15.79;60.59
75457;SHT31;64036;48.266;14.192;2023-10-08T05:46:20;15.88;60.41
75457;SHT31;64036;48.266;14.192;2023-10-08T05:51:38;16.06;60.06
75457;SHT31;64036;48.266;14.192;2023-10-08T05:54:15;16.13;59.96
75457;SHT31;64036;48.266;14.192;2023-10-08T05:56:52;16.19;59.84
75457;SHT31;64036;48.266;14.192;2023-10-08T05:59:42;16.23;59.68
75457;SHT31;64036;48.266;14.192;2023-10-08T06:02:25;16.29;59.67
75457;SHT31;64036;48.266;14.192;2023-10-08T06:05:02;16.34;59.54
75457;SHT31;64036;48.266;14.192;2023-10-08T06:07:49;16.40;59.46
75457;SHT31;64036;48.266;14.192;2023-10-08T06:10:23;16.47;59.37
75457;SHT31;64036;48.266;14.192;2023-10-08T06:15:56;16.73;59.14
75457;SHT31;64036;48.266;14.192;2023-10-08T06:18:23;16.94;58.83
75457;SHT31;64036;48.266;14.192;2023-10-08T06:23:21;17.31;58.18
75457;SHT31;64036;48.266;14.192;2023-10-08T06:25:48;17.45;58.05
75457;SHT31;64036;48.266;14.192;2023-10-08T06:28:30;17.81;57.65
75457;SHT31;64036;48.266;14.192;2023-10-08T06:31:00;18.17;57.20
75457;SHT31;64036;48.266;14.192;2023-10-08T06:33:28;18.45;56.56
75457;SHT31;64036;48.266;14.192;2023-10-08T06:36:01;18.82;56.37
75457;SHT31;64036;48.266;14.192;2023-10-08T06:38:47;18.99;55.75
75457;SHT31;64036;48.266;14.192;2023-10-08T06:41:15;18.98;55.42
75457;SHT31;64036;48.266;14.192;2023-10-08T06:43:46;18.99;55.57
75457;SHT31;64036;48.266;14.192;2023-10-08T06:46:14;19.01;55.39
75457;SHT31;64036;48.266;14.192;2023-10-08T06:48:47;18.99;55.13
75457;SHT31;64036;48.266;14.192;2023-10-08T06:51:14;18.97;55.04
75457;SHT31;64036;48.266;14.192;2023-10-08T06:53:47;19.02;54.79
75457;SHT31;64036;48.266;14.192;2023-10-08T06:56:13;19.45;54.48
75457;SHT31;64036;48.266;14.192;2023-10-08T06:58:41;19.82;53.69
75457;SHT31;64036;48.266;14.192;2023-10-08T07:01:13;19.73;53.70
75457;SHT31;64036;48.266;14.192;2023-10-08T07:03:47;19.57;53.64
75457;SHT31;64036;48.266;14.192;2023-10-08T07:06:17;19.45;53.95
75457;SHT31;64036;48.266;14.192;2023-10-08T07:08:56;19.33;54.04
75457;SHT31;64036;48.266;14.192;2023-10-08T07:11:24;19.26;54.16
75457;SHT31;64036;48.266;14.192;2023-10-08T07:13:54;19.21;54.46
75457;SHT31;64036;48.266;14.192;2023-10-08T07:16:21;19.16;54.62
75457;SHT31;64036;48.266;14.192;2023-10-08T07:18:48;19.14;54.83
75457;SHT31;64036;48.266;14.192;2023-10-08T07:21:16;19.14;54.94
75457;SHT31;64036;48.266;14.192;2023-10-08T07:23:42;19.15;54.90
75457;SHT31;64036;48.266;14.192;2023-10-08T07:26:26;19.08;54.67
75457;SHT31;64036;48.266;14.192;2023-10-08T07:29:01;19.00;55.04
75457;SHT31;64036;48.266;14.192;2023-10-08T07:31:37;18.95;55.22
75457;SHT31;64036;48.266;14.192;2023-10-08T07:34:06;18.93;55.14
75457;SHT31;64036;48.266;14.192;2023-10-08T07:36:43;18.95;55.31
75457;SHT31;64036;48.266;14.192;2023-10-08T07:39:13;18.98;55.44
75457;SHT31;64036;48.266;14.192;2023-10-08T07:41:52;19.01;55.58
75457;SHT31;64036;48.266;14.192;2023-10-08T07:44:20;19.04;55.60
75457;SHT31;64036;48.266;14.192;2023-10-08T07:46:50;19.13;55.77
75457;SHT31;64036;48.266;14.192;2023-10-08T07:49:19;19.23;55.73
75457;SHT31;64036;48.266;14.192;2023-10-08T07:51:48;19.32;55.61
75457;SHT31;64036;48.266;14.192;2023-10-08T07:54:18;19.36;55.66
75457;SHT31;64036;48.266;14.192;2023-10-08T07:56:48;19.36;55.79
75457;SHT31;64036;48.266;14.192;2023-10-08T07:59:17;19.35;56.03
75457;SHT31;64036;48.266;14.192;2023-10-08T08:01:43;19.33;56.13
75457;SHT31;64036;48.266;14.192;2023-10-08T08:04:10;19.33;56.00
75457;SHT31;64036;48.266;14.192;2023-10-08T08:06:37;19.30;55.96
75457;SHT31;64036;48.266;14.192;2023-10-08T08:09:03;19.26;55.99
75457;SHT31;64036;48.266;14.192;2023-10-08T08:11:44;19.25;55.89
75457;SHT31;64036;48.266;14.192;2023-10-08T08:14:14;19.22;56.26
75457;SHT31;64036;48.266;14.192;2023-10-08T08:16:50;19.20;56.60
75457;SHT31;64036;48.266;14.192;2023-10-08T08:19:16;19.18;56.57
75457;SHT31;64036;48.266;14.192;2023-10-08T08:21:49;19.17;56.75
75457;SHT31;64036;48.266;14.192;2023-10-08T08:24:17;19.19;56.84
75457;SHT31;64036;48.266;14.192;2023-10-08T08:26:56;19.20;56.94
75457;SHT31;64036;48.266;14.192;2023-10-08T08:29:37;19.19;56.91
75457;SHT31;64036;48.266;14.192;2023-10-08T08:32:10;19.19;57.06
75457;SHT31;64036;48.266;14.192;2023-10-08T08:34:46;19.16;57.10
75457;SHT31;64036;48.266;14.192;2023-10-08T08:37:18;19.12;57.31
75457;SHT31;64036;48.266;14.192;2023-10-08T08:39:52;19.10;57.43
75457;SHT31;64036;48.266;14.192;2023-10-08T08:42:19;19.06;57.62
75457;SHT31;64036;48.266;14.192;2023-10-08T08:44:52;19.01;57.78
75457;SHT31;64036;48.266;14.192;2023-10-08T08:47:20;18.95;57.97
75457;SHT31;64036;48.266;14.192;2023-10-08T08:49:50;18.90;58.17
75457;SHT31;64036;48.266;14.192;2023-10-08T08:52:18;18.87;58.18
75457;SHT31;64036;48.266;14.192;2023-10-08T08:54:44;18.82;58.40
75457;SHT31;64036;48.266;14.192;2023-10-08T08:57:10;18.79;58.49
75457;SHT31;64036;48.266;14.192;2023-10-08T09:00:00;18.81;58.49
75457;SHT31;64036;48.266;14.192;2023-10-08T09:02:25;18.83;58.56
75457;SHT31;64036;48.266;14.192;2023-10-08T09:04:51;18.87;58.45
75457;SHT31;64036;48.266;14.192;2023-10-08T09:07:23;18.90;58.60
75457;SHT31;64036;48.266;14.192;2023-10-08T09:09:49;18.97;58.60
75457;SHT31;64036;48.266;14.192;2023-10-08T09:12:18;19.01;58.63
75457;SHT31;64036;48.266;14.192;2023-10-08T09:14:46;19.05;58.41
75457;SHT31;64036;48.266;14.192;2023-10-08T09:17:13;19.08;58.19
75457;SHT31;64036;48.266;14.192;2023-10-08T09:19:40;19.09;57.96
75457;SHT31;64036;48.266;14.192;2023-10-08T09:22:07;19.08;57.89
75457;SHT31;64036;48.266;14.192;2023-10-08T09:24:39;19.11;57.98
75457;SHT31;64036;48.266;14.192;2023-10-08T09:27:07;19.17;57.84
75457;SHT31;64036;48.266;14.192;2023-10-08T09:29:39;19.24;57.98
75457;SHT31;64036;48.266;14.192;2023-10-08T09:32:08;19.32;57.98
75457;SHT31;64036;48.266;14.192;2023-10-08T09:34:35;19.36;57.79
75457;SHT31;64036;48.266;14.192;2023-10-08T09:37:01;19.37;57.47
75457;SHT31;64036;48.266;14.192;2023-10-08T09:39:32;19.38;57.69
75457;SHT31;64036;48.266;14.192;2023-10-08T09:42:02;19.40;57.70
75457;SHT31;64036;48.266;14.192;2023-10-08T09:44:29;19.48;57.82
75457;SHT31;64036;48.266;14.192;2023-10-08T09:49:32;19.67;57.69
75457;SHT31;64036;48.266;14.192;2023-10-08T09:52:23;19.73;57.49
75457;SHT31;64036;48.266;14.192;2023-10-08T09:55:01;19.72;57.15
75457;SHT31;64036;48.266;14.192;2023-10-08T09:57:35;19.69;57.20
75457;SHT31;64036;48.266;14.192;2023-10-08T10:00:03;19.67;57.31
75457;SHT31;64036;48.266;14.192;2023-10-08T10:02:32;19.64;57.49
75457;SHT31;64036;48.266;14.192;2023-10-08T10:04:59;19.62;57.58
75457;SHT31;64036;48.266;14.192;2023-10-08T10:07:25;19.59;57.40
75457;SHT31;64036;48.266;14.192;2023-10-08T10:09:53;19.52;57.18
75457;SHT31;64036;48.266;14.192;2023-10-08T10:12:21;19.49;57.33
75457;SHT31;64036;48.266;14.192;2023-10-08T10:14:54;19.45;57.20
75457;SHT31;64036;48.266;14.192;2023-10-08T10:17:22;19.44;57.44
75457;SHT31;64036;48.266;14.192;2023-10-08T10:19:56;19.45;57.42
75457;SHT31;64036;48.266;14.192;2023-10-08T10:22:32;19.46;57.58
75457;SHT31;64036;48.266;14.192;2023-10-08T10:25:02;19.45;57.75
75457;SHT31;64036;48.266;14.192;2023-10-08T10:28:25;19.43;57.66
75457;SHT31;64036;48.266;14.192;2023-10-08T10:30:25;19.41;57.51
75457;SHT31;64036;48.266;14.192;2023-10-08T10:32:53;19.44;57.62
75457;SHT31;64036;48.266;14.192;2023-10-08T10:35:20;19.51;57.77
75457;SHT31;64036;48.266;14.192;2023-10-08T10:37:48;19.60;57.70
75457;SHT31;64036;48.266;14.192;2023-10-08T10:40:23;19.62;57.48
75457;SHT31;64036;48.266;14.192;2023-10-08T10:43:16;19.60;57.68
75457;SHT31;64036;48.266;14.192;2023-10-08T10:45:45;19.57;57.98
75457;SHT31;64036;48.266;14.192;2023-10-08T10:48:13;19.56;58.28
75457;SHT31;64036;48.266;14.192;2023-10-08T10:50:48;19.54;57.80
75457;SHT31;64036;48.266;14.192;2023-10-08T10:53:40;19.46;57.75
75457;SHT31;64036;48.266;14.192;2023-10-08T10:56:24;19.34;57.74
75457;SHT31;64036;48.266;14.192;2023-10-08T10:58:59;19.27;57.88
75457;SHT31;64036;48.266;14.192;2023-10-08T11:01:36;19.25;58.09
75457;SHT31;64036;48.266;14.192;2023-10-08T11:04:11;19.26;58.05
75457;SHT31;64036;48.266;14.192;2023-10-08T11:06:44;19.29;58.15
75457;SHT31;64036;48.266;14.192;2023-10-08T11:09:12;19.31;58.24
75457;SHT31;64036;48.266;14.192;2023-10-08T11:11:52;19.36;58.10
75457;SHT31;64036;48.266;14.192;2023-10-08T11:14:20;19.41;58.17
75457;SHT31;64036;48.266;14.192;2023-10-08T11:16:49;19.46;58.22
75457;SHT31;64036;48.266;14.192;2023-10-08T11:19:19;19.51;58.06
75457;SHT31;64036;48.266;14.192;2023-10-08T11:21:49;19.58;58.24
75457;SHT31;64036;48.266;14.192;2023-10-08T11:24:27;19.69;58.08
75457;SHT31;64036;48.266;14.192;2023-10-08T11:26:59;19.82;57.98
75457;SHT31;64036;48.266;14.192;2023-10-08T11:29:42;19.91;57.93
75457;SHT31;64036;48.266;14.192;2023-10-08T11:32:13;19.97;57.85
75457;SHT31;64036;48.266;14.192;2023-10-08T11:34:46;20.03;57.63
75457;SHT31;64036;48.266;14.192;2023-10-08T11:37:31;20.07;57.30
75457;SHT31;64036;48.266;14.192;2023-10-08T11:40:02;20.07;57.43
75457;SHT31;64036;48.266;14.192;2023-10-08T11:42:51;20.08;57.48
75457;SHT31;64036;48.266;14.192;2023-10-08T11:45:17;20.08;57.50
75457;SHT31;64036;48.266;14.192;2023-10-08T11:47:46;20.12;57.80
75457;SHT31;64036;48.266;14.192;2023-10-08T11:50:16;20.19;57.82
75457;SHT31;64036;48.266;14.192;2023-10-08T11:52:44;20.26;57.87
75457;SHT31;64036;48.266;14.192;2023-10-08T11:55:15;20.29;57.73
75457;SHT31;64036;48.266;14.192;2023-10-08T11:57:45;20.30;57.34
75457;SHT31;64036;48.266;14.192;2023-10-08T12:00:14;20.33;57.25
75457;SHT31;64036;48.266;14.192;2023-10-08T12:02:47;20.40;57.22
75457;SHT31;64036;48.266;14.192;2023-10-08T12:05:14;20.39;57.08
75457;SHT31;64036;48.266;14.192;2023-10-08T12:07:51;20.37;57.25
75457;SHT31;64036;48.266;14.192;2023-10-08T12:10:22;20.35;57.17
75457;SHT31;64036;48.266;14.192;2023-10-08T12:12:49;20.36;57.13
75457;SHT31;64036;48.266;14.192;2023-10-08T12:15:22;20.46;57.09
75457;SHT31;64036;48.266;14.192;2023-10-08T12:17:51;20.58;56.99
75457;SHT31;64036;48.266;14.192;2023-10-08T12:20:37;20.66;56.89
75457;SHT31;64036;48.266;14.192;2023-10-08T12:23:04;20.68;56.63
75457;SHT31;64036;48.266;14.192;2023-10-08T12:25:31;20.65;56.45
75457;SHT31;64036;48.266;14.192;2023-10-08T12:27:58;20.61;56.66
75457;SHT31;64036;48.266;14.192;2023-10-08T12:30:29;20.57;56.69
75457;SHT31;64036;48.266;14.192;2023-10-08T12:33:06;20.51;56.79
75457;SHT31;64036;48.266;14.192;2023-10-08T12:35:38;20.50;56.69
75457;SHT31;64036;48.266;14.192;2023-10-08T12:38:05;20.48;56.77
75457;SHT31;64036;48.266;14.192;2023-10-08T12:40:31;20.49;57.03
75457;SHT31;64036;48.266;14.192;2023-10-08T12:43:17;20.50;56.90
75457;SHT31;64036;48.266;14.192;2023-10-08T12:45:45;20.50;56.89
75457;SHT31;64036;48.266;14.192;2023-10-08T12:48:21;20.44;56.54
75457;SHT31;64036;48.266;14.192;2023-10-08T12:50:51;20.36;56.55
75457;SHT31;64036;48.266;14.192;2023-10-08T12:53:24;20.31;56.65
75457;SHT31;64036;48.266;14.192;2023-10-08T12:56:08;20.28;56.69
75457;SHT31;64036;48.266;14.192;2023-10-08T12:58:41;20.30;56.97
75457;SHT31;64036;48.266;14.192;2023-10-08T13:01:13;20.31;56.97
75457;SHT31;64036;48.266;14.192;2023-10-08T13:03:42;20.37;56.92
75457;SHT31;64036;48.266;14.192;2023-10-08T13:06:13;20.41;57.12
75457;SHT31;64036;48.266;14.192;2023-10-08T13:08:54;20.41;57.06
75457;SHT31;64036;48.266;14.192;2023-10-08T13:11:21;20.39;57.07
75457;SHT31;64036;48.266;14.192;2023-10-08T13:13:50;20.39;57.13
75457;SHT31;64036;48.266;14.192;2023-10-08T13:16:24;20.44;57.20
75457;SHT31;64036;48.266;14.192;2023-10-08T13:18:56;20.50;57.30
75457;SHT31;64036;48.266;14.192;2023-10-08T13:21:23;20.55;57.23
75457;SHT31;64036;48.266;14.192;2023-10-08T13:23:54;20.59;57.36
75457;SHT31;64036;48.266;14.192;2023-10-08T13:26:31;20.58;57.29
75457;SHT31;64036;48.266;14.192;2023-10-08T13:29:00;20.51;57.37
75457;SHT31;64036;48.266;14.192;2023-10-08T13:31:26;20.44;57.37
75457;SHT31;64036;48.266;14.192;2023-10-08T13:33:53;20.34;57.36
75457;SHT31;64036;48.266;14.192;2023-10-08T13:36:22;20.24;57.61
75457;SHT31;64036;48.266;14.192;2023-10-08T13:38:49;20.21;57.86
75457;SHT31;64036;48.266;14.192;2023-10-08T13:41:16;20.20;57.84
75457;SHT31;64036;48.266;14.192;2023-10-08T13:43:46;20.18;57.99
75457;SHT31;64036;48.266;14.192;2023-10-08T13:46:17;20.19;58.24
75457;SHT31;64036;48.266;14.192;2023-10-08T13:48:48;20.22;58.43
75457;SHT31;64036;48.266;14.192;2023-10-08T13:51:20;20.25;58.14
75457;SHT31;64036;48.266;14.192;2023-10-08T13:53:51;20.23;58.25
75457;SHT31;64036;48.266;14.192;2023-10-08T13:56:19;20.24;58.24
75457;SHT31;64036;48.266;14.192;2023-10-08T13:58:50;20.21;58.35
75457;SHT31;64036;48.266;14.192;2023-10-08T14:01:21;20.18;58.47
75457;SHT31;64036;48.266;14.192;2023-10-08T14:03:48;20.15;58.66
75457;SHT31;64036;48.266;14.192;2023-10-08T14:06:15;20.11;58.63
75457;SHT31;64036;48.266;14.192;2023-10-08T14:08:45;20.04;58.93
75457;SHT31;64036;48.266;14.192;2023-10-08T14:11:18;19.98;59.17
75457;SHT31;64036;48.266;14.192;2023-10-08T14:13:49;19.92;59.39
75457;SHT31;64036;48.266;14.192;2023-10-08T14:16:18;19.84;59.37
75457;SHT31;64036;48.266;14.192;2023-10-08T14:18:49;19.80;59.56
75457;SHT31;64036;48.266;14.192;2023-10-08T14:21:19;19.78;59.67
75457;SHT31;64036;48.266;14.192;2023-10-08T14:23:50;19.74;59.81
75457;SHT31;64036;48.266;14.192;2023-10-08T14:26:21;19.65;60.03
75457;SHT31;64036;48.266;14.192;2023-10-08T14:28:50;19.45;58.78
75457;SHT31;64036;48.266;14.192;2023-10-08T14:31:18;19.24;58.84
75457;SHT31;64036;48.266;14.192;2023-10-08T14:33:48;19.04;58.95
75457;SHT31;64036;48.266;14.192;2023-10-08T14:36:32;18.84;59.32
75457;SHT31;64036;48.266;14.192;2023-10-08T14:39:17;18.68;59.55
75457;SHT31;64036;48.266;14.192;2023-10-08T14:42:02;18.52;59.77
75457;SHT31;64036;48.266;14.192;2023-10-08T14:44:46;18.36;59.95
75457;SHT31;64036;48.266;14.192;2023-10-08T14:47:14;18.27;60.10
75457;SHT31;64036;48.266;14.192;2023-10-08T14:49:40;18.23;60.40
75457;SHT31;64036;48.266;14.192;2023-10-08T14:52:08;18.18;60.58
75457;SHT31;64036;48.266;14.192;2023-10-08T14:54:33;18.08;60.62
75457;SHT31;64036;48.266;14.192;2023-10-08T14:56:59;17.97;60.89
75457;SHT31;64036;48.266;14.192;2023-10-08T14:59:28;17.80;61.05
75457;SHT31;64036;48.266;14.192;2023-10-08T15:01:55;17.68;61.23
75457;SHT31;64036;48.266;14.192;2023-10-08T15:04:23;17.59;61.31
75457;SHT31;64036;48.266;14.192;2023-10-08T15:06:54;17.46;61.54
75457;SHT31;64036;48.266;14.192;2023-10-08T15:09:23;17.36;61.71
75457;SHT31;64036;48.266;14.192;2023-10-08T15:11:52;17.27;61.89
75457;SHT31;64036;48.266;14.192;2023-10-08T15:14:18;17.19;61.99
75457;SHT31;64036;48.266;14.192;2023-10-08T15:16:45;17.13;62.12
75457;SHT31;64036;48.266;14.192;2023-10-08T15:19:17;17.07;62.32
75457;SHT31;64036;48.266;14.192;2023-10-08T15:21:50;17.04;62.37
75457;SHT31;64036;48.266;14.192;2023-10-08T15:24:22;17.00;62.61
75457;SHT31;64036;48.266;14.192;2023-10-08T15:26:51;16.98;62.90
75457;SHT31;64036;48.266;14.192;2023-10-08T15:29:19;16.98;63.04
75457;SHT31;64036;48.266;14.192;2023-10-08T15:31:47;16.89;63.05
75457;SHT31;64036;48.266;14.192;2023-10-08T15:34:14;16.77;63.35
75457;SHT31;64036;48.266;14.192;2023-10-08T15:36:41;16.70;63.74
75457;SHT31;64036;48.266;14.192;2023-10-08T15:39:07;16.70;63.72
75457;SHT31;64036;48.266;14.192;2023-10-08T15:41:37;16.68;63.81
75457;SHT31;64036;48.266;14.192;2023-10-08T15:44:03;16.64;63.96
75457;SHT31;64036;48.266;14.192;2023-10-08T15:46:31;16.60;64.01
75457;SHT31;64036;48.266;14.192;2023-10-08T15:49:01;16.57;64.02
75457;SHT31;64036;48.266;14.192;2023-10-08T15:51:30;16.57;64.22
75457;SHT31;64036;48.266;14.192;2023-10-08T15:53:57;16.58;63.90
75457;SHT31;64036;48.266;14.192;2023-10-08T15:56:26;16.60;63.72
75457;SHT31;64036;48.266;14.192;2023-10-08T15:58:53;16.59;63.65
75457;SHT31;64036;48.266;14.192;2023-10-08T16:01:19;16.57;63.75